KHYS

Hays Regional Airport

Hays, Kansas, USA
KHYS 261120Z 2612/2712 23005KT P6SM FEW250 FM261800 36015G25KT P6SM BKN150 FM270100 36010KT P6SM SKC
Issued Valid From Valid To
Apr-26 @ 11:20 UTC
(2 hours ago)
Apr-26 @ 12:00 UTC
(2 hours ago)
Apr-27 @ 12:00 UTC
(in 22 hours)
Apr-26 @ 12:00 to Apr-26 @ 18:00
KHYS 261120Z 2612/2712 23005KT P6SM FEW250
Wind Visibility Clouds
230° at 5 knots Greater than 6 miles
  • Few at 25,000' AGL
From Apr-26 @ 18:00 to Apr-27 @ 01:00
FM261800 36015G25KT P6SM BKN150
Wind Visibility Clouds
360° at 15 knots
 Gusting to 25 knots
Greater than 6 miles
  • Broken at 15,000' AGL
From Apr-27 @ 01:00 to Apr-27 @ 12:00
FM270100 36010KT P6SM SKC
Wind Visibility Clouds
360° at 10 knots Greater than 6 miles
  • Clear skies
KHYS 261120Z 2612/2712 23005KT P6SM FEW250 FM261800 36015G25KT P6SM BKN150 FM270100 36010KT P6SM SKC
Issued Apr-26 @ 11:20 UTC
(2 hours ago)
Valid From Apr-26 @ 12:00 UTC
(2 hours ago)
Valid To Apr-27 @ 12:00 UTC
(in 22 hours)
Apr-26 @ 12:00 - Apr-26 @ 18:00
Wind Visibility
230° at 5 knots Greater than 6 miles
Clouds
  • Few at 25,000' AGL
From Apr-26 @ 18:00 - Apr-27 @ 01:00
Wind Visibility
360° at 15 knots
 Gusting to 25 knots
Greater than 6 miles
Clouds
  • Broken at 15,000' AGL
From Apr-27 @ 01:00 - Apr-27 @ 12:00
Wind Visibility
360° at 10 knots Greater than 6 miles
Clouds
  • Clear skies